Time;durP1;ratioP1;P1;durP2;ratioP2;P2;SDS_P1;SDS_P2;PMS_P1;PMS_P2;Temp;Humidity;BMP_temperature;BMP_pressure;BME280_temperature;BME280_humidity;BME280_pressure;Samples;Min_cycle;Max_cycle;Signal;HPM_P1;HPM_P2
2022/06/22 00:01:23;;;;;;;4.43;2.60;;;14.40;99.90;;;;;;5111292;27;20273;-80
2022/06/22 00:04:18;;;;;;;4.35;2.90;;;14.30;99.90;;;;;;5102617;27;20225;-79
2022/06/22 00:07:13;;;;;;;2.95;2.53;;;14.40;99.90;;;;;;5120424;27;20226;-84
2022/06/22 00:10:08;;;;;;;7.18;2.80;;;14.30;99.90;;;;;;5117022;27;20207;-82
2022/06/22 00:13:00;;;;;;;4.03;2.40;;;14.30;99.90;;;;;;5114613;28;20582;-81
2022/06/22 00:15:51;;;;;;;5.88;2.90;;;14.20;99.90;;;;;;5096313;27;20214;-78
2022/06/22 00:18:42;;;;;;;5.70;3.08;;;14.30;99.90;;;;;;5117639;27;20242;-78
2022/06/22 00:21:35;;;;;;;3.88;3.00;;;14.20;99.90;;;;;;5090785;27;20219;-80
2022/06/22 00:24:37;;;;;;;8.40;2.80;;;14.20;99.90;;;;;;5093601;27;20227;-79
2022/06/22 00:27:33;;;;;;;6.22;3.35;;;14.20;99.90;;;;;;5094259;27;20223;-80
2022/06/22 00:30:27;;;;;;;4.82;2.70;;;14.20;99.90;;;;;;5094423;27;20304;-78
2022/06/22 00:33:20;;;;;;;4.30;2.80;;;14.20;99.90;;;;;;5097929;27;20552;-78
2022/06/22 00:36:19;;;;;;;4.85;2.95;;;14.20;99.90;;;;;;5091183;27;20310;-82
2022/06/22 00:39:16;;;;;;;9.02;3.05;;;14.20;99.90;;;;;;5097076;27;20226;-82
2022/06/22 00:42:21;;;;;;;5.07;2.90;;;14.10;99.90;;;;;;5089895;27;20223;-81
2022/06/22 00:45:14;;;;;;;4.35;2.70;;;14.10;99.90;;;;;;5090617;27;20214;-79
2022/06/22 00:48:21;;;;;;;3.63;2.60;;;14.10;99.90;;;;;;5094885;27;20939;-78
2022/06/22 00:51:16;;;;;;;3.97;2.40;;;14.10;99.90;;;;;;5088105;27;20211;-79
2022/06/22 00:54:07;;;;;;;3.08;2.78;;;14.10;99.90;;;;;;5090159;27;20336;-79
2022/06/22 00:57:04;;;;;;;5.18;3.00;;;14.10;99.90;;;;;;5090149;28;20223;-73
2022/06/22 01:00:02;;;;;;;3.92;2.72;;;14.10;99.90;;;;;;5098573;27;20221;-79
2022/06/22 01:02:58;;;;;;;5.43;2.80;;;14.00;99.90;;;;;;5092509;27;20223;-78
2022/06/22 01:05:55;;;;;;;3.20;2.88;;;14.10;99.90;;;;;;5110636;27;20221;-79
2022/06/22 01:08:48;;;;;;;9.50;3.10;;;14.00;99.90;;;;;;5117264;27;20226;-79
2022/06/22 01:15:00;;;;;;;6.35;3.20;;;13.90;99.90;;;;;;5093040;27;20302;-77
2022/06/22 01:17:55;;;;;;;7.50;3.58;;;14.00;99.90;;;;;;5093012;27;20263;-77
2022/06/22 01:20:57;;;;;;;8.90;2.60;;;13.90;99.90;;;;;;5086807;28;20218;-80
2022/06/22 01:24:00;;;;;;;4.85;3.03;;;13.90;99.90;;;;;;5094120;27;20242;-77
2022/06/22 01:27:21;;;;;;;5.25;2.90;;;13.90;99.90;;;;;;5089310;27;20329;-78
2022/06/22 01:30:21;;;;;;;3.65;2.90;;;13.80;99.90;;;;;;5088024;27;20555;-76
2022/06/22 01:33:18;;;;;;;4.07;2.85;;;13.90;99.90;;;;;;5089934;28;20379;-77
2022/06/22 01:36:17;;;;;;;6.40;3.53;;;13.90;99.90;;;;;;5091785;27;20219;-78
2022/06/22 01:39:07;;;;;;;6.72;3.13;;;13.80;99.90;;;;;;5094933;27;21386;-78
2022/06/22 01:42:00;;;;;;;7.00;3.58;;;13.80;99.90;;;;;;5091135;27;20565;-77
2022/06/22 01:44:57;;;;;;;5.65;3.20;;;13.80;99.90;;;;;;5094108;27;20219;-76
2022/06/22 01:47:52;;;;;;;5.80;3.72;;;13.70;99.90;;;;;;5097388;27;20213;-76
2022/06/22 01:50:50;;;;;;;5.65;3.55;;;13.70;99.90;;;;;;5119594;27;20227;-79
2022/06/22 01:53:44;;;;;;;4.78;3.30;;;13.70;99.90;;;;;;5090163;27;20283;-78
2022/06/22 01:56:40;;;;;;;7.35;3.83;;;13.60;99.90;;;;;;5096335;27;20669;-79
2022/06/22 01:59:36;;;;;;;4.57;3.15;;;13.60;99.90;;;;;;5122780;27;20226;-79
2022/06/22 02:02:32;;;;;;;7.75;3.67;;;13.60;99.90;;;;;;5098877;27;20234;-79
2022/06/22 02:05:29;;;;;;;5.38;3.65;;;13.60;99.90;;;;;;5096879;27;20587;-79
2022/06/22 02:08:25;;;;;;;6.15;3.55;;;13.50;99.90;;;;;;5095276;27;20317;-78
2022/06/22 02:11:19;;;;;;;5.57;3.40;;;13.60;99.90;;;;;;5092946;28;20223;-78
2022/06/22 02:14:17;;;;;;;6.05;3.30;;;13.60;99.90;;;;;;5089911;27;20228;-77
2022/06/22 02:17:06;;;;;;;6.05;3.88;;;13.60;99.90;;;;;;5086188;28;20542;-78
2022/06/22 02:20:36;;;;;;;7.05;4.00;;;13.50;99.90;;;;;;5095663;27;20212;-77
2022/06/22 02:23:29;;;;;;;5.70;3.70;;;13.50;99.90;;;;;;5098839;27;20915;-76
2022/06/22 02:26:31;;;;;;;6.55;3.95;;;13.40;99.90;;;;;;5090299;27;20223;-77
2022/06/22 02:29:23;;;;;;;5.85;4.00;;;13.40;99.90;;;;;;5097573;27;20215;-82
2022/06/22 02:32:15;;;;;;;5.70;4.28;;;13.50;99.90;;;;;;5116916;28;20222;-81
2022/06/22 02:35:07;;;;;;;13.15;4.07;;;13.40;99.90;;;;;;5103877;27;20223;-81
2022/06/22 02:38:02;;;;;;;8.73;4.13;;;13.40;99.90;;;;;;5090315;28;20226;-78
2022/06/22 02:47:18;;;;;;;7.20;4.07;;;13.60;99.90;;;;;;5096749;27;20738;-78
2022/06/22 02:50:15;;;;;;;5.97;3.88;;;13.60;99.90;;;;;;5118074;27;20215;-77
2022/06/22 02:53:08;;;;;;;4.25;3.78;;;13.70;99.90;;;;;;5086217;27;20246;-78
2022/06/22 02:55:58;;;;;;;6.50;4.38;;;13.70;99.90;;;;;;5088290;28;20216;-74
2022/06/22 02:58:48;;;;;;;7.72;4.47;;;13.70;99.90;;;;;;5094077;27;20215;-80
2022/06/22 03:01:38;;;;;;;6.60;4.18;;;13.70;99.90;;;;;;5091284;27;20216;-78
2022/06/22 03:04:28;;;;;;;7.93;4.15;;;13.70;99.90;;;;;;5093840;27;20215;-79
2022/06/22 03:07:19;;;;;;;6.95;4.43;;;13.70;99.90;;;;;;5093053;27;20231;-78
2022/06/22 03:10:10;;;;;;;9.15;4.50;;;13.70;99.90;;;;;;5097564;27;20746;-78
2022/06/22 03:13:01;;;;;;;9.73;4.07;;;13.80;99.90;;;;;;5089419;28;20223;-79
2022/06/22 03:15:50;;;;;;;5.68;4.22;;;13.90;99.90;;;;;;5105331;27;20226;-74
2022/06/22 03:18:43;;;;;;;6.97;4.20;;;14.00;99.90;;;;;;5102275;27;20211;-78
2022/06/22 03:21:32;;;;;;;5.63;4.18;;;14.00;99.90;;;;;;5095767;27;20215;-78
2022/06/22 03:24:33;;;;;;;6.13;4.30;;;14.10;99.90;;;;;;5099096;27;20227;-79
2022/06/22 03:27:28;;;;;;;5.85;4.05;;;14.10;99.90;;;;;;5103834;27;20721;-79
2022/06/22 03:30:24;;;;;;;6.47;4.00;;;14.20;99.90;;;;;;5096931;28;20230;-79
2022/06/22 03:33:16;;;;;;;6.85;4.43;;;14.20;99.90;;;;;;5121105;27;20970;-79
2022/06/22 03:36:11;;;;;;;11.07;4.18;;;14.30;99.90;;;;;;5090933;27;20234;-80
2022/06/22 03:39:03;;;;;;;7.40;4.40;;;14.30;99.90;;;;;;5093071;27;20212;-79
2022/06/22 03:41:57;;;;;;;9.02;3.83;;;14.40;99.90;;;;;;5088475;27;20238;-77
2022/06/22 03:44:50;;;;;;;8.43;3.95;;;14.50;99.90;;;;;;5107845;27;20222;-78
2022/06/22 03:47:45;;;;;;;6.97;4.45;;;14.60;99.90;;;;;;5095362;28;20234;-79
2022/06/22 03:50:42;;;;;;;3.97;3.33;;;14.70;99.90;;;;;;5094067;27;20220;-78
2022/06/22 03:53:36;;;;;;;9.40;4.40;;;14.70;99.90;;;;;;5090919;27;20302;-78
2022/06/22 03:56:28;;;;;;;7.30;3.75;;;14.80;99.90;;;;;;5092142;27;20226;-77
2022/06/22 03:59:20;;;;;;;5.53;3.90;;;14.90;99.90;;;;;;5099541;27;20230;-77
2022/06/22 04:02:10;;;;;;;6.43;3.95;;;14.90;99.90;;;;;;5084694;27;20259;-76
2022/06/22 04:05:05;;;;;;;6.22;3.78;;;15.00;99.90;;;;;;5100224;27;20227;-77
2022/06/22 04:07:55;;;;;;;4.97;3.97;;;15.10;99.90;;;;;;5095277;27;20223;-78
2022/06/22 04:10:48;;;;;;;5.70;3.80;;;15.10;99.90;;;;;;5100108;27;20339;-79
2022/06/22 04:13:41;;;;;;;7.35;4.45;;;15.10;99.90;;;;;;5110443;27;20211;-79
2022/06/22 04:16:34;;;;;;;7.55;3.90;;;15.20;99.90;;;;;;5093834;27;20223;-79
2022/06/22 04:19:27;;;;;;;5.28;3.72;;;15.30;99.90;;;;;;5101126;27;20219;-79
2022/06/22 04:22:21;;;;;;;7.00;4.43;;;15.40;99.90;;;;;;5097538;27;20219;-78
2022/06/22 04:25:18;;;;;;;5.20;3.90;;;15.40;99.90;;;;;;5098218;27;20215;-79
2022/06/22 04:28:10;;;;;;;9.07;4.22;;;15.50;99.90;;;;;;5101900;27;20682;-78
2022/06/22 04:31:00;;;;;;;6.72;4.28;;;15.60;99.90;;;;;;5100212;27;20219;-80
2022/06/22 04:33:52;;;;;;;14.05;6.80;;;15.50;99.90;;;;;;5099908;27;20219;-81
2022/06/22 04:36:44;;;;;;;4.50;3.95;;;15.60;99.90;;;;;;5098838;27;20734;-78
2022/06/22 04:39:44;;;;;;;8.25;3.85;;;15.70;99.90;;;;;;5101846;27;20226;-77
2022/06/22 04:42:34;;;;;;;5.85;3.92;;;15.70;99.90;;;;;;5109342;27;20214;-75
2022/06/22 04:45:28;;;;;;;6.22;3.97;;;15.80;99.90;;;;;;5101082;27;20230;-79
2022/06/22 04:48:21;;;;;;;4.82;3.72;;;15.90;99.90;;;;;;5098489;27;20270;-78
2022/06/22 04:51:17;;;;;;;4.63;3.50;;;16.00;99.90;;;;;;5097971;27;20223;-80
2022/06/22 04:54:12;;;;;;;5.45;3.72;;;16.10;99.90;;;;;;5100327;27;20223;-79
2022/06/22 04:57:07;;;;;;;9.55;3.70;;;16.20;99.90;;;;;;5099158;27;20213;-80
2022/06/22 04:59:56;;;;;;;8.30;3.30;;;16.30;99.90;;;;;;5111319;27;20224;-81
2022/06/22 05:02:50;;;;;;;11.77;3.42;;;16.40;99.90;;;;;;5099661;27;20464;-78
2022/06/22 05:05:39;;;;;;;6.78;3.33;;;16.40;99.90;;;;;;5094785;27;20239;-78
2022/06/22 05:08:34;;;;;;;8.25;3.58;;;16.50;99.90;;;;;;5091210;27;20237;-79
2022/06/22 05:11:27;;;;;;;5.18;3.58;;;16.60;99.90;;;;;;5095127;27;20712;-79
2022/06/22 05:14:21;;;;;;;6.43;3.53;;;16.70;99.90;;;;;;5098560;27;20231;-79
2022/06/22 05:17:17;;;;;;;6.00;3.30;;;16.80;99.90;;;;;;5116580;27;20288;-83
2022/06/22 05:20:14;;;;;;;6.72;2.97;;;17.00;99.90;;;;;;5110563;27;20249;-84
2022/06/22 05:23:05;;;;;;;7.22;3.38;;;17.00;99.90;;;;;;5093621;27;20249;-82
2022/06/22 05:25:56;;;;;;;9.23;3.50;;;17.00;99.90;;;;;;5095941;27;20248;-86
2022/06/22 05:28:48;;;;;;;6.93;3.25;;;17.20;99.90;;;;;;5097204;27;20231;-80
2022/06/22 05:31:43;;;;;;;5.28;3.05;;;17.20;99.90;;;;;;5094865;27;20222;-81
2022/06/22 05:34:34;;;;;;;6.90;3.17;;;17.20;99.90;;;;;;5093196;27;21031;-81
2022/06/22 05:37:28;;;;;;;6.60;2.97;;;17.30;99.90;;;;;;5089283;27;20219;-83
2022/06/22 05:40:17;;;;;;;8.80;3.15;;;17.30;99.90;;;;;;5094660;27;20234;-83
2022/06/22 05:43:08;;;;;;;11.27;3.60;;;17.40;99.90;;;;;;5092216;27;20352;-77
2022/06/22 05:46:02;;;;;;;4.97;3.20;;;17.50;99.90;;;;;;5108837;27;20219;-81
2022/06/22 05:48:56;;;;;;;10.10;3.80;;;17.50;99.90;;;;;;5095814;27;20282;-84
2022/06/22 05:51:57;;;;;;;10.07;3.80;;;17.60;99.90;;;;;;5098825;27;20318;-87
2022/06/22 05:54:52;;;;;;;7.95;3.33;;;17.80;99.90;;;;;;5092007;28;20323;-81
2022/06/22 05:57:50;;;;;;;7.35;3.20;;;17.70;99.90;;;;;;5091759;28;20222;-85
2022/06/22 06:00:44;;;;;;;7.47;3.20;;;17.90;99.90;;;;;;5098563;27;20669;-82
2022/06/22 06:03:40;;;;;;;6.57;3.70;;;17.90;99.90;;;;;;5093765;28;20225;-80
2022/06/22 06:06:37;;;;;;;5.55;3.03;;;17.90;99.90;;;;;;5098055;27;20247;-79
2022/06/22 06:09:33;;;;;;;7.55;3.40;;;18.00;99.90;;;;;;5093035;27;20239;-78
2022/06/22 06:12:25;;;;;;;5.80;3.17;;;18.00;99.90;;;;;;5088341;27;20227;-76
2022/06/22 06:15:15;;;;;;;9.32;3.63;;;18.10;99.90;;;;;;5092048;27;20229;-76
2022/06/22 06:18:13;;;;;;;5.75;2.97;;;18.20;99.90;;;;;;5092287;27;20326;-75
2022/06/22 06:21:04;;;;;;;7.40;3.30;;;18.30;99.90;;;;;;5093617;27;20219;-74
2022/06/22 06:23:57;;;;;;;8.75;3.20;;;18.50;99.90;;;;;;5089355;27;20227;-80
2022/06/22 06:30:05;;;;;;;8.35;3.10;;;21.80;99.90;;;;;;5095719;27;20208;-69
2022/06/22 06:33:00;;;;;;;8.13;2.65;;;21.10;99.90;;;;;;5091378;28;20762;-83
2022/06/22 06:35:52;;;;;;;8.43;2.95;;;20.40;99.90;;;;;;5098043;27;20220;-84
2022/06/22 06:38:46;;;;;;;9.43;2.88;;;19.90;99.90;;;;;;5101541;28;20235;-74
2022/06/22 06:41:40;;;;;;;6.00;2.60;;;19.60;99.90;;;;;;5095481;27;20317;-74
2022/06/22 06:44:29;;;;;;;30.30;4.85;;;19.40;99.90;;;;;;5097578;27;20223;-74
2022/06/22 06:47:29;;;;;;;7.00;3.05;;;19.40;99.90;;;;;;5107264;27;20214;-75
2022/06/22 08:33:05;;;;;;;4.45;2.05;;;27.60;78.40;;;;;;5055409;27;20585;-71
2022/06/22 08:35:58;;;;;;;3.08;2.17;;;27.90;77.60;;;;;;5053953;28;21015;-72
2022/06/22 08:38:53;;;;;;;4.05;2.15;;;27.90;75.90;;;;;;5058370;28;20228;-73
2022/06/22 08:41:50;;;;;;;4.10;2.20;;;28.10;75.30;;;;;;5096134;28;20211;-72
2022/06/22 08:44:51;;;;;;;4.53;2.40;;;28.10;73.10;;;;;;5103328;28;20230;-73
2022/06/22 08:48:09;;;;;;;7.78;2.15;;;28.60;74.40;;;;;;5094149;28;20270;-73
2022/06/22 08:51:14;;;;;;;4.20;2.22;;;28.20;72.30;;;;;;5098450;28;20222;-72
2022/06/22 08:54:38;;;;;;;7.13;2.33;;;29.00;71.90;;;;;;5097026;28;20265;-72
2022/06/22 08:57:41;;;;;;;5.55;2.30;;;29.00;71.30;;;;;;5097904;28;20237;-73
2022/06/22 09:00:38;;;;;;;3.92;2.13;;;28.10;73.60;;;;;;5097520;28;20355;-72
2022/06/22 09:04:16;;;;;;;5.03;2.38;;;28.70;72.30;;;;;;5094147;28;20226;-71
2022/06/22 09:07:25;;;;;;;3.47;2.45;;;29.70;70.00;;;;;;5098088;28;20225;-72
2022/06/22 09:10:45;;;;;;;4.78;2.30;;;28.30;70.70;;;;;;5098476;28;20360;-71
2022/06/22 09:13:58;;;;;;;5.72;2.25;;;27.60;71.30;;;;;;5097570;28;20927;-72
2022/06/22 09:17:08;;;;;;;3.92;2.20;;;28.60;73.70;;;;;;5093393;28;20324;-71
2022/06/22 09:20:18;;;;;;;4.03;2.10;;;28.60;72.60;;;;;;5097957;28;20713;-71
2022/06/22 09:23:21;;;;;;;3.58;1.92;;;30.40;69.00;;;;;;5099460;28;20233;-71
2022/06/22 09:26:19;;;;;;;4.35;1.80;;;30.10;64.60;;;;;;5096793;28;20305;-72
2022/06/22 09:29:21;;;;;;;5.05;1.90;;;29.50;61.90;;;;;;5081639;28;20254;-72
2022/06/22 09:32:30;;;;;;;5.15;2.08;;;30.50;64.70;;;;;;5098589;28;20249;-72
2022/06/22 09:36:04;;;;;;;4.30;2.30;;;33.50;60.10;;;;;;5096324;28;20233;-71
2022/06/22 09:39:19;;;;;;;4.25;1.90;;;31.60;58.80;;;;;;5099313;28;20589;-70
2022/06/22 09:42:20;;;;;;;7.43;2.20;;;28.70;64.40;;;;;;5097684;28;20585;-71
2022/06/22 09:45:23;;;;;;;5.90;2.05;;;31.10;62.50;;;;;;5084506;28;21051;-72
2022/06/22 09:48:34;;;;;;;5.05;1.95;;;32.70;58.70;;;;;;5082636;28;20237;-72
2022/06/22 09:51:46;;;;;;;7.22;2.17;;;33.30;57.70;;;;;;5084541;28;20294;-72
2022/06/22 09:58:53;;;;;;;5.65;2.15;;;34.10;55.50;;;;;;5087505;28;20229;-72
2022/06/22 10:01:54;;;;;;;2.80;1.85;;;30.70;58.00;;;;;;5085377;28;21137;-71
2022/06/22 10:05:22;;;;;;;6.72;2.10;;;32.00;58.60;;;;;;5085207;28;20888;-73
2022/06/22 10:08:31;;;;;;;3.05;1.90;;;32.80;56.00;;;;;;5081997;28;20214;-71
2022/06/22 10:11:28;;;;;;;8.35;2.22;;;32.90;58.30;;;;;;5086993;28;20268;-72
2022/06/22 10:14:46;;;;;;;5.90;2.10;;;31.10;59.80;;;;;;5084615;28;20222;-73
2022/06/22 10:17:54;;;;;;;5.72;2.03;;;30.00;62.50;;;;;;5083079;28;20227;-74
2022/06/22 10:21:06;;;;;;;3.75;1.92;;;34.50;54.80;;;;;;5079870;28;20261;-75
2022/06/22 10:24:26;;;;;;;3.10;1.85;;;36.00;52.00;;;;;;5069515;28;20714;-74
2022/06/22 10:27:50;;;;;;;5.70;2.00;;;37.50;48.60;;;;;;5068342;28;20363;-74
2022/06/22 10:30:50;;;;;;;6.65;2.38;;;33.10;52.30;;;;;;5085164;28;20233;-73
2022/06/22 10:33:59;;;;;;;5.85;2.20;;;30.10;58.20;;;;;;5083960;28;20227;-72
2022/06/22 10:37:15;;;;;;;6.00;2.20;;;33.70;55.60;;;;;;5071559;28;20215;-71
2022/06/22 10:47:12;;;;;;;6.70;2.00;;;37.60;45.60;;;;;;5084865;28;20566;-74
2022/06/22 10:50:23;;;;;;;2.80;2.17;;;38.90;44.40;;;;;;5060572;28;20558;-73
2022/06/22 10:53:50;;;;;;;3.60;1.88;;;37.50;43.90;;;;;;5082810;28;20325;-73
2022/06/22 10:57:06;;;;;;;3.65;2.00;;;37.90;45.80;;;;;;5080581;28;20215;-73
2022/06/22 11:00:15;;;;;;;2.80;1.73;;;39.30;42.90;;;;;;5089383;28;20261;-73
2022/06/22 11:03:41;;;;;;;2.88;1.80;;;41.00;39.90;;;;;;5080768;28;20596;-76
2022/06/22 11:07:04;;;;;;;4.50;1.88;;;38.30;42.60;;;;;;5084541;28;20249;-72
2022/06/22 11:10:10;;;;;;;5.07;1.98;;;37.10;45.60;;;;;;5082575;28;20231;-72
2022/06/22 11:13:26;;;;;;;3.60;1.83;;;38.50;42.70;;;;;;5079517;28;20231;-72
2022/06/22 11:16:31;;;;;;;2.22;1.67;;;40.80;41.10;;;;;;5064452;28;20306;-74
2022/06/22 11:19:40;;;;;;;4.97;2.30;;;39.30;38.50;;;;;;5082352;28;20218;-73
2022/06/22 11:22:35;;;;;;;2.80;1.83;;;36.90;43.50;;;;;;5081490;28;20606;-73
2022/06/22 11:32:51;;;;;;;7.40;2.20;;;38.60;39.30;;;;;;5083985;28;20230;-75
2022/06/22 11:36:12;;;;;;;4.78;2.00;;;40.40;41.60;;;;;;5083557;28;20222;-74
2022/06/22 11:39:29;;;;;;;1.83;1.60;;;41.50;39.70;;;;;;5084974;28;20237;-74
2022/06/22 11:42:24;;;;;;;3.60;1.80;;;40.40;38.80;;;;;;5085232;28;20240;-73
2022/06/22 11:49:21;;;;;;;3.80;1.52;;;40.30;39.30;;;;;;5001516;28;20353;-74
2022/06/22 11:52:38;;;;;;;3.00;1.80;;;36.90;42.00;;;;;;5000386;28;20804;-73
2022/06/22 11:55:32;;;;;;;2.85;1.77;;;36.40;42.40;;;;;;5081286;28;20280;-75
2022/06/22 11:58:40;;;;;;;2.10;1.90;;;34.20;45.20;;;;;;5079484;28;20225;-75
2022/06/22 12:01:52;;;;;;;7.25;1.92;;;36.00;45.30;;;;;;5078295;28;20349;-74
2022/06/22 12:05:14;;;;;;;2.13;1.80;;;37.50;41.20;;;;;;5068957;28;20226;-75
2022/06/22 12:08:40;;;;;;;4.55;1.83;;;36.00;44.00;;;;;;5066937;28;20302;-74
2022/06/22 12:11:40;;;;;;;4.50;1.70;;;37.90;42.60;;;;;;5082854;28;21159;-74
2022/06/22 12:18:01;;;;;;;2.28;1.75;;;37.80;43.50;;;;;;5081300;28;20223;-74
2022/06/22 12:21:02;;;;;;;3.42;1.63;;;38.80;41.00;;;;;;5081947;28;20233;-75
2022/06/22 12:23:57;;;;;;;4.18;1.85;;;37.60;40.40;;;;;;5083124;28;20237;-74
2022/06/22 12:26:58;;;;;;;3.83;1.83;;;36.70;41.50;;;;;;5082799;28;20241;-74
2022/06/22 12:30:09;;;;;;;2.05;1.70;;;35.70;43.40;;;;;;5079032;28;20226;-75
2022/06/22 12:33:06;;;;;;;3.50;1.70;;;36.00;44.00;;;;;;5080769;28;20292;-74
2022/06/22 12:35:59;;;;;;;2.13;1.60;;;35.30;44.50;;;;;;5084381;28;20728;-73
2022/06/22 12:38:51;;;;;;;3.17;1.70;;;36.30;43.00;;;;;;5084453;28;20221;-74
2022/06/22 12:42:11;;;;;;;5.13;1.70;;;36.70;42.40;;;;;;5079432;28;20210;-74
2022/06/22 12:45:20;;;;;;;3.50;2.00;;;37.10;41.70;;;;;;5082725;28;20210;-74
2022/06/22 12:48:39;;;;;;;12.45;2.10;;;37.50;42.30;;;;;;5061532;28;20303;-74
2022/06/22 12:51:36;;;;;;;6.80;1.92;;;38.10;41.50;;;;;;5067166;28;20247;-75
2022/06/22 12:54:30;;;;;;;4.57;1.80;;;34.20;44.50;;;;;;5065619;28;20283;-75
2022/06/22 12:57:23;;;;;;;4.45;1.85;;;32.40;48.10;;;;;;5055947;28;20238;-75
2022/06/22 13:00:15;;;;;;;3.63;1.70;;;30.80;47.10;;;;;;5082749;28;20242;-74
2022/06/22 13:03:05;;;;;;;4.78;1.98;;;29.50;50.00;;;;;;5081063;28;20238;-78
2022/06/22 13:05:56;;;;;;;4.60;1.80;;;29.20;52.30;;;;;;5080783;28;20748;-76
2022/06/22 13:08:45;;;;;;;3.53;1.95;;;28.90;54.90;;;;;;5086970;28;20351;-75
2022/06/22 13:11:37;;;;;;;5.05;1.88;;;28.50;55.40;;;;;;5068858;28;20227;-77
2022/06/22 13:14:34;;;;;;;5.28;1.70;;;28.00;55.70;;;;;;5082051;28;20222;-75
2022/06/22 13:17:33;;;;;;;3.85;2.38;;;27.40;57.00;;;;;;5083939;28;20226;-75
2022/06/22 13:20:37;;;;;;;5.35;2.30;;;27.50;59.50;;;;;;5069496;28;20222;-76
2022/06/22 13:23:47;;;;;;;2.67;2.22;;;27.50;57.80;;;;;;5083337;28;20223;-77
2022/06/22 13:26:45;;;;;;;8.75;2.03;;;27.60;59.20;;;;;;5083446;28;20216;-76
2022/06/22 13:29:40;;;;;;;4.53;2.25;;;27.50;57.60;;;;;;5086715;28;20330;-75
2022/06/22 13:32:32;;;;;;;3.17;1.95;;;27.30;58.50;;;;;;5086802;28;20302;-76
2022/06/22 13:35:30;;;;;;;11.20;2.80;;;27.00;58.50;;;;;;5088215;28;20211;-77
2022/06/22 13:38:54;;;;;;;11.07;2.70;;;27.10;59.00;;;;;;5084362;28;20726;-73
2022/06/22 13:42:03;;;;;;;9.18;2.38;;;27.20;60.10;;;;;;5088455;28;20233;-75
2022/06/22 13:45:08;;;;;;;5.43;2.15;;;27.50;59.90;;;;;;5071120;28;20242;-75
2022/06/22 13:48:19;;;;;;;3.80;2.03;;;27.50;58.40;;;;;;5072159;28;20325;-76
2022/06/22 13:51:50;;;;;;;5.32;2.20;;;27.40;59.00;;;;;;5072502;28;20295;-75
2022/06/22 13:55:11;;;;;;;4.72;2.00;;;27.20;59.70;;;;;;5085870;28;20332;-76
2022/06/22 13:58:08;;;;;;;2.50;1.85;;;27.00;60.10;;;;;;5086215;28;20220;-75
2022/06/22 14:01:02;;;;;;;5.78;2.30;;;26.90;61.10;;;;;;5069911;28;20215;-76
2022/06/22 14:04:03;;;;;;;11.05;2.40;;;26.70;59.70;;;;;;5085683;28;20215;-75
2022/06/22 14:06:59;;;;;;;8.55;2.17;;;26.40;60.20;;;;;;5064895;28;20269;-75
2022/06/22 14:09:54;;;;;;;4.45;2.20;;;26.50;61.20;;;;;;5086555;28;20597;-76
2022/06/22 14:12:52;;;;;;;5.88;2.08;;;26.30;60.50;;;;;;5073536;28;20233;-75
2022/06/22 14:15:47;;;;;;;5.45;2.13;;;26.50;61.80;;;;;;5088588;28;20227;-76
2022/06/22 14:18:49;;;;;;;2.88;2.00;;;26.40;60.50;;;;;;5083522;28;20265;-75
2022/06/22 14:21:44;;;;;;;2.22;1.80;;;26.40;61.50;;;;;;5072750;28;20318;-76
2022/06/22 14:24:39;;;;;;;4.82;1.90;;;26.10;61.30;;;;;;5079336;28;20314;-76
2022/06/22 14:27:36;;;;;;;2.80;2.00;;;25.80;61.10;;;;;;5082667;28;20220;-76
2022/06/22 14:30:36;;;;;;;2.28;1.70;;;25.90;62.50;;;;;;5067791;28;20231;-75
2022/06/22 14:33:43;;;;;;;7.55;2.08;;;25.90;64.30;;;;;;5087666;28;20239;-77
2022/06/22 14:36:37;;;;;;;4.65;2.05;;;25.80;64.70;;;;;;5079961;28;20218;-78
2022/06/22 14:39:34;;;;;;;5.25;2.28;;;25.80;62.50;;;;;;5083269;28;20254;-73
2022/06/22 14:42:27;;;;;;;6.85;2.33;;;25.70;64.50;;;;;;5084371;28;20298;-74
2022/06/22 14:45:24;;;;;;;4.93;1.83;;;25.70;64.50;;;;;;5074497;28;20717;-74
2022/06/22 14:48:19;;;;;;;4.30;1.92;;;25.50;62.30;;;;;;5082931;28;20227;-75
2022/06/22 14:51:18;;;;;;;2.88;1.98;;;25.40;60.90;;;;;;5078147;28;20250;-75
2022/06/22 14:54:14;;;;;;;2.45;1.92;;;25.40;63.10;;;;;;5082190;28;20211;-76
2022/06/22 14:57:11;;;;;;;3.88;2.08;;;25.50;63.90;;;;;;5079381;28;20376;-74
2022/06/22 15:00:17;;;;;;;3.05;2.00;;;25.70;62.60;;;;;;5078391;28;20223;-76
2022/06/22 15:03:20;;;;;;;3.70;2.13;;;25.70;63.20;;;;;;5082452;28;20306;-74
2022/06/22 15:06:17;;;;;;;5.00;2.00;;;25.70;63.10;;;;;;5082203;28;20241;-76
2022/06/22 15:09:15;;;;;;;6.93;1.80;;;25.70;63.60;;;;;;5083817;28;20703;-76
2022/06/22 15:15:38;;;;;;;3.85;1.83;;;25.60;64.50;;;;;;5081913;28;20289;-74
2022/06/22 15:18:41;;;;;;;3.17;1.88;;;25.50;64.60;;;;;;5084419;28;20219;-77
2022/06/22 15:21:37;;;;;;;3.40;2.15;;;25.70;65.20;;;;;;5079811;28;20265;-75
2022/06/22 15:25:06;;;;;;;3.97;1.90;;;25.60;64.30;;;;;;5082440;28;20676;-74
2022/06/22 15:28:05;;;;;;;5.22;2.03;;;25.30;64.90;;;;;;5073143;28;20231;-73
2022/06/22 15:31:02;;;;;;;2.33;1.70;;;25.20;64.80;;;;;;5080407;28;20231;-75
2022/06/22 15:33:59;;;;;;;2.35;1.90;;;25.10;65.30;;;;;;5080922;28;20220;-74
2022/06/22 15:37:21;;;;;;;3.03;2.05;;;25.00;65.50;;;;;;5081758;28;20310;-74
2022/06/22 15:40:42;;;;;;;2.92;2.03;;;25.00;65.70;;;;;;5079145;28;20226;-76
2022/06/22 15:44:09;;;;;;;4.35;2.08;;;25.00;64.20;;;;;;5081755;28;20302;-75
2022/06/22 15:47:03;;;;;;;4.80;1.88;;;25.00;65.00;;;;;;5012261;28;20307;-75
2022/06/22 15:50:17;;;;;;;3.10;1.90;;;25.10;64.50;;;;;;5021034;28;20384;-76
2022/06/22 15:53:16;;;;;;;3.28;2.10;;;25.10;64.90;;;;;;5062546;28;20234;-76
2022/06/22 15:56:27;;;;;;;3.05;2.00;;;25.10;66.30;;;;;;5083584;28;20344;-75
2022/06/22 15:59:21;;;;;;;5.13;2.20;;;25.00;65.00;;;;;;5082348;28;20265;-76
2022/06/22 16:02:37;;;;;;;4.90;2.10;;;25.00;66.30;;;;;;5082617;28;21616;-73
2022/06/22 16:05:38;;;;;;;2.20;1.92;;;25.00;66.00;;;;;;5049605;28;20601;-73
2022/06/22 16:08:32;;;;;;;2.50;1.85;;;25.00;64.90;;;;;;5076504;28;20222;-76
2022/06/22 16:14:39;;;;;;;4.22;2.13;;;25.00;65.80;;;;;;5083759;28;20223;-73
2022/06/22 16:17:37;;;;;;;2.22;1.98;;;25.00;67.20;;;;;;5086868;28;20223;-76
2022/06/22 16:20:33;;;;;;;3.88;1.90;;;25.00;66.10;;;;;;5066814;28;20219;-75
2022/06/22 16:23:34;;;;;;;2.55;1.83;;;24.90;66.50;;;;;;5081419;28;20224;-74
2022/06/22 16:26:33;;;;;;;4.03;2.13;;;24.90;66.20;;;;;;5080814;28;20647;-75
2022/06/22 16:29:26;;;;;;;3.95;2.17;;;24.90;65.50;;;;;;5082008;28;20226;-75
2022/06/22 16:32:25;;;;;;;5.72;2.53;;;24.90;66.00;;;;;;5082371;28;20239;-74
2022/06/22 16:35:22;;;;;;;2.85;2.00;;;24.90;66.40;;;;;;5084198;28;20613;-75
2022/06/22 16:38:17;;;;;;;4.45;2.15;;;24.80;65.90;;;;;;5083719;28;20237;-75
2022/06/22 16:41:15;;;;;;;3.40;2.13;;;24.60;66.80;;;;;;5074435;28;20242;-76
2022/06/22 16:44:32;;;;;;;2.67;2.10;;;24.50;66.70;;;;;;5081778;28;20223;-75
2022/06/22 16:47:21;;;;;;;3.28;2.05;;;24.50;68.30;;;;;;5075389;28;20219;-75
2022/06/22 16:50:16;;;;;;;2.10;1.90;;;24.40;66.90;;;;;;5080182;28;20234;-77
2022/06/22 16:53:05;;;;;;;3.03;1.75;;;24.40;67.80;;;;;;5068804;28;20231;-76
2022/06/22 16:55:56;;;;;;;2.15;1.67;;;24.30;67.90;;;;;;5086006;28;20242;-74
2022/06/22 16:58:45;;;;;;;3.67;2.25;;;24.30;67.50;;;;;;5080275;28;20230;-75
2022/06/22 17:01:39;;;;;;;3.20;1.73;;;24.20;67.10;;;;;;5065747;28;20691;-76
2022/06/22 17:04:40;;;;;;;5.53;1.98;;;24.10;67.30;;;;;;5071831;28;20223;-76
2022/06/22 17:07:36;;;;;;;2.00;1.90;;;24.00;67.00;;;;;;5094166;28;20245;-76
2022/06/22 17:10:36;;;;;;;3.97;2.00;;;24.00;68.30;;;;;;5082243;28;20554;-76
2022/06/22 17:25:50;;;;;;;3.17;2.10;;;23.80;67.50;;;;;;4976735;28;20538;-74
2022/06/22 17:28:45;;;;;;;3.67;2.10;;;23.90;68.60;;;;;;4993864;28;20230;-75
2022/06/22 17:31:40;;;;;;;4.13;2.00;;;23.70;68.50;;;;;;4982569;28;20234;-75
2022/06/22 17:34:38;;;;;;;2.30;1.85;;;23.60;69.80;;;;;;4980942;28;20309;-75
2022/06/22 17:37:40;;;;;;;3.85;2.08;;;23.50;68.70;;;;;;4996186;28;20238;-73
2022/06/22 17:40:36;;;;;;;6.32;2.35;;;23.40;69.60;;;;;;5003737;28;20254;-74
2022/06/22 17:43:35;;;;;;;4.38;2.72;;;23.30;69.20;;;;;;4990647;28;20358;-73
2022/06/22 17:46:26;;;;;;;3.60;1.90;;;23.30;70.10;;;;;;4989459;28;20422;-74
2022/06/22 17:49:17;;;;;;;3.60;1.98;;;23.20;69.50;;;;;;4995871;28;20318;-75
2022/06/22 17:52:06;;;;;;;4.28;2.00;;;23.20;69.70;;;;;;4993361;28;20784;-75
2022/06/22 17:55:02;;;;;;;2.05;1.73;;;23.20;70.90;;;;;;4980473;28;20239;-73
2022/06/22 17:57:54;;;;;;;3.28;2.22;;;23.10;71.00;;;;;;4997159;28;20361;-73
2022/06/22 18:00:47;;;;;;;3.88;2.25;;;23.10;71.90;;;;;;4997807;28;20241;-75
2022/06/22 18:03:49;;;;;;;2.22;1.80;;;23.10;72.00;;;;;;4978537;28;20582;-75
2022/06/22 18:06:41;;;;;;;2.72;1.90;;;23.00;72.10;;;;;;4992624;28;20233;-74
2022/06/22 18:09:36;;;;;;;3.13;1.90;;;22.90;72.00;;;;;;4996240;28;20233;-74
2022/06/22 18:12:29;;;;;;;5.22;1.90;;;22.80;72.20;;;;;;4992504;28;20776;-75